Mobile — WDD9649 — position and weather

sailwx.info

Track history (hours):
 
Tides and Currents Weather Stations Pressure Air Temp Water Temp Dewpoint Dewpoint Depression Visibility Wind Speed Wind Dir Waves Ship Positions

Mobile

Owner: Kirby Inland Marine, LP, Houston, TX. More information available from US FCC via Universal Licensing System and Coast Guard Vessel Documentation Center.

Last reported at 2018-Feb-18 17:25 UTC. Time now 2018-Feb-21 01:50 UTC.
Position N 30°24' W 086°53'.

Length 206 m; draft 2.7 m.

Type: . MMSI: 367314430.

Date/timePositionNaut miles runAvg speedWind from/ knotsBaromVisibWave heightAir tempDewpointWater temp
2018-Feb-18 17:25N 30°24' W 086°53'3 6.3
2018-Feb-18 17:00N 30°24' W 086°50'3 6.5
2018-Feb-18 16:30N 30°24' W 086°46'10 6.3
2018-Feb-18 14:59N 30°24' W 086°35'4 6.0
2018-Feb-18 14:22N 30°25' W 086°31'3 6.9
2018-Feb-18 14:00N 30°27' W 086°29'2 3.3
2018-Feb-18 13:30N 30°28' W 086°28'2 4.2
2018-Feb-18 12:56N 30°31' W 086°29'0 0.0
2018-Feb-17 15:36N 30°31' W 086°29'0 1.4
2018-Feb-17 15:30N 30°31' W 086°29'1 2.9
2018-Feb-17 15:00N 30°29' W 086°29'2 3.8
2018-Feb-17 14:30N 30°27' W 086°28'3 6.2
2018-Feb-17 14:00N 30°26' W 086°31'12 5.0
2018-Feb-17 11:38N 30°24' W 086°45'1 4.9
2018-Feb-17 11:29N 30°24' W 086°46'1 1.4
2018-Feb-17 11:00N 30°24' W 086°47'0 0.1
2018-Feb-17 10:31N 30°24' W 086°47'0 0.1
2018-Feb-17 10:00N 30°24' W 086°47'0 0.1
2018-Feb-17 09:30N 30°24' W 086°47'0 0.1
2018-Feb-17 09:00N 30°24' W 086°47'0 0.1
2018-Feb-17 08:30N 30°24' W 086°47'0 0.2
2018-Feb-17 08:00N 30°24' W 086°47'2 4.8
2018-Feb-17 07:30N 30°24' W 086°49'  
2018-Feb-13 20:07N 30°24' W 086°53'1 5.9
2018-Feb-13 19:59N 30°24' W 086°52'3 5.9
2018-Feb-13 19:30N 30°24' W 086°49'3 6.1
2018-Feb-13 19:00N 30°24' W 086°45'9 6.2
2018-Feb-13 17:35N 30°24' W 086°35'1 6.5
2018-Feb-13 17:26N 30°24' W 086°34'3 6.4
2018-Feb-13 17:00N 30°26' W 086°31'3 6.2
2018-Feb-13 16:30N 30°27' W 086°28'3 0.2
2018-Feb-13 00:34N 30°31' W 086°29'0 0.0
2018-Feb-13 00:04N 30°31' W 086°29'0 0.0
2018-Feb-12 23:46N 30°31' W 086°29'0 0.0
2018-Feb-12 23:10N 30°31' W 086°29'0 0.0
2018-Feb-12 22:59N 30°31' W 086°29'0 0.0
2018-Feb-12 22:29N 30°31' W 086°29'0 0.0
2018-Feb-12 21:44N 30°31' W 086°29'0 0.0
2018-Feb-12 21:28N 30°31' W 086°29'0 0.0
2018-Feb-12 20:22N 30°31' W 086°29'0 1.2
2018-Feb-12 20:00N 30°30' W 086°29'3 5.0
2018-Feb-12 19:30N 30°28' W 086°28'1 1.6
2018-Feb-12 19:00N 30°27' W 086°29'15 4.8
2018-Feb-12 15:56N 30°24' W 086°45'2 5.3
2018-Feb-12 15:30N 30°24' W 086°48'3 5.4
2018-Feb-12 15:01N 30°24' W 086°51'  
Track history (hours):
 
Tides and Currents Weather Stations Pressure Air Temp Water Temp Dewpoint Dewpoint Depression Visibility Wind Speed Wind Dir Waves Ship Positions

Mobile

Owner: Kirby Inland Marine, LP, Houston, TX. More information available from US FCC via Universal Licensing System and Coast Guard Vessel Documentation Center.

Last reported at 2018-Feb-18 17:25 UTC. Time now 2018-Feb-21 01:50 UTC.
Position N 30°24' W 086°53'.

Length 206 m; draft 2.7 m.

Type: . MMSI: 367314430.

Date/timePositionNaut miles runAvg speedWind from/ knotsBaromVisibWave heightAir tempDewpointWater temp
2018-Feb-18 17:25N 30°24' W 086°53'3 6.3
2018-Feb-18 17:00N 30°24' W 086°50'3 6.5
2018-Feb-18 16:30N 30°24' W 086°46'10 6.3
2018-Feb-18 14:59N 30°24' W 086°35'4 6.0
2018-Feb-18 14:22N 30°25' W 086°31'3 6.9
2018-Feb-18 14:00N 30°27' W 086°29'2 3.3
2018-Feb-18 13:30N 30°28' W 086°28'2 4.2
2018-Feb-18 12:56N 30°31' W 086°29'0 0.0
2018-Feb-17 15:36N 30°31' W 086°29'0 1.4
2018-Feb-17 15:30N 30°31' W 086°29'1 2.9
2018-Feb-17 15:00N 30°29' W 086°29'2 3.8
2018-Feb-17 14:30N 30°27' W 086°28'3 6.2
2018-Feb-17 14:00N 30°26' W 086°31'12 5.0
2018-Feb-17 11:38N 30°24' W 086°45'1 4.9
2018-Feb-17 11:29N 30°24' W 086°46'1 1.4
2018-Feb-17 11:00N 30°24' W 086°47'0 0.1
2018-Feb-17 10:31N 30°24' W 086°47'0 0.1
2018-Feb-17 10:00N 30°24' W 086°47'0 0.1
2018-Feb-17 09:30N 30°24' W 086°47'0 0.1
2018-Feb-17 09:00N 30°24' W 086°47'0 0.1
2018-Feb-17 08:30N 30°24' W 086°47'0 0.2
2018-Feb-17 08:00N 30°24' W 086°47'2 4.8
2018-Feb-17 07:30N 30°24' W 086°49'  
2018-Feb-13 20:07N 30°24' W 086°53'1 5.9
2018-Feb-13 19:59N 30°24' W 086°52'3 5.9
2018-Feb-13 19:30N 30°24' W 086°49'3 6.1
2018-Feb-13 19:00N 30°24' W 086°45'9 6.2
2018-Feb-13 17:35N 30°24' W 086°35'1 6.5
2018-Feb-13 17:26N 30°24' W 086°34'3 6.4
2018-Feb-13 17:00N 30°26' W 086°31'3 6.2
2018-Feb-13 16:30N 30°27' W 086°28'3 0.2
2018-Feb-13 00:34N 30°31' W 086°29'0 0.0
2018-Feb-13 00:04N 30°31' W 086°29'0 0.0
2018-Feb-12 23:46N 30°31' W 086°29'0 0.0
2018-Feb-12 23:10N 30°31' W 086°29'0 0.0
2018-Feb-12 22:59N 30°31' W 086°29'0 0.0
2018-Feb-12 22:29N 30°31' W 086°29'0 0.0
2018-Feb-12 21:44N 30°31' W 086°29'0 0.0
2018-Feb-12 21:28N 30°31' W 086°29'0 0.0
2018-Feb-12 20:22N 30°31' W 086°29'0 1.2
2018-Feb-12 20:00N 30°30' W 086°29'3 5.0
2018-Feb-12 19:30N 30°28' W 086°28'1 1.6
2018-Feb-12 19:00N 30°27' W 086°29'15 4.8
2018-Feb-12 15:56N 30°24' W 086°45'2 5.3
2018-Feb-12 15:30N 30°24' W 086°48'3 5.4
2018-Feb-12 15:01N 30°24' W 086°51'  

Dump ship's entire track history